sensor_id;sensor_type;location;lat;lon;timestamp;P1;durP1;ratioP1;P2;durP2;ratioP2
35150;SDS011;55720;51.972;4.624;2023-08-30T00:00:03;4.03;;;3.10;;
35150;SDS011;55720;51.972;4.624;2023-08-30T00:02:29;4.93;;;3.35;;
35150;SDS011;55720;51.972;4.624;2023-08-30T00:04:58;5.88;;;3.80;;
35150;SDS011;55720;51.972;4.624;2023-08-30T00:07:23;4.95;;;4.03;;
35150;SDS011;55720;51.972;4.624;2023-08-30T00:09:49;4.50;;;3.70;;
35150;SDS011;55720;51.972;4.624;2023-08-30T00:12:14;8.17;;;4.00;;
35150;SDS011;55720;51.972;4.624;2023-08-30T00:14:39;6.78;;;4.43;;
35150;SDS011;55720;51.972;4.624;2023-08-30T00:17:05;5.77;;;4.20;;
35150;SDS011;55720;51.972;4.624;2023-08-30T00:19:30;6.33;;;4.00;;
35150;SDS011;55720;51.972;4.624;2023-08-30T00:21:55;5.00;;;4.18;;
35150;SDS011;55720;51.972;4.624;2023-08-30T00:24:22;6.28;;;4.68;;
35150;SDS011;55720;51.972;4.624;2023-08-30T00:26:47;6.65;;;4.05;;
35150;SDS011;55720;51.972;4.624;2023-08-30T00:29:12;4.10;;;3.63;;
35150;SDS011;55720;51.972;4.624;2023-08-30T00:31:37;5.80;;;4.50;;
35150;SDS011;55720;51.972;4.624;2023-08-30T00:34:03;7.83;;;5.03;;
35150;SDS011;55720;51.972;4.624;2023-08-30T00:36:28;5.57;;;4.63;;
35150;SDS011;55720;51.972;4.624;2023-08-30T00:38:53;6.13;;;4.40;;
35150;SDS011;55720;51.972;4.624;2023-08-30T00:41:18;5.80;;;4.40;;
35150;SDS011;55720;51.972;4.624;2023-08-30T00:43:43;7.40;;;4.57;;
35150;SDS011;55720;51.972;4.624;2023-08-30T00:46:09;8.60;;;4.50;;
35150;SDS011;55720;51.972;4.624;2023-08-30T00:48:34;5.75;;;4.45;;
35150;SDS011;55720;51.972;4.624;2023-08-30T00:50:59;13.98;;;6.30;;
35150;SDS011;55720;51.972;4.624;2023-08-30T00:53:25;7.85;;;4.35;;
35150;SDS011;55720;51.972;4.624;2023-08-30T00:55:50;10.98;;;4.82;;
35150;SDS011;55720;51.972;4.624;2023-08-30T00:58:15;7.47;;;4.63;;
35150;SDS011;55720;51.972;4.624;2023-08-30T01:00:41;7.80;;;4.30;;
35150;SDS011;55720;51.972;4.624;2023-08-30T01:03:06;6.10;;;4.80;;
35150;SDS011;55720;51.972;4.624;2023-08-30T01:05:32;7.82;;;5.50;;
35150;SDS011;55720;51.972;4.624;2023-08-30T01:07:58;8.80;;;4.93;;
35150;SDS011;55720;51.972;4.624;2023-08-30T01:10:27;10.55;;;4.47;;
35150;SDS011;55720;51.972;4.624;2023-08-30T01:12:56;10.45;;;4.97;;
35150;SDS011;55720;51.972;4.624;2023-08-30T01:15:23;9.18;;;5.20;;
35150;SDS011;55720;51.972;4.624;2023-08-30T01:17:51;6.72;;;4.90;;
35150;SDS011;55720;51.972;4.624;2023-08-30T01:20:17;8.07;;;5.40;;
35150;SDS011;55720;51.972;4.624;2023-08-30T01:26:02;5.20;;;4.25;;
35150;SDS011;55720;51.972;4.624;2023-08-30T01:28:06;6.75;;;4.53;;
35150;SDS011;55720;51.972;4.624;2023-08-30T01:30:33;6.47;;;4.55;;
35150;SDS011;55720;51.972;4.624;2023-08-30T01:33:02;8.25;;;5.00;;
35150;SDS011;55720;51.972;4.624;2023-08-30T01:35:28;8.43;;;5.88;;
35150;SDS011;55720;51.972;4.624;2023-08-30T01:37:57;10.02;;;5.18;;
35150;SDS011;55720;51.972;4.624;2023-08-30T01:40:23;7.38;;;5.10;;
35150;SDS011;55720;51.972;4.624;2023-08-30T01:42:48;8.77;;;4.72;;
35150;SDS011;55720;51.972;4.624;2023-08-30T01:45:14;5.13;;;4.50;;
35150;SDS011;55720;51.972;4.624;2023-08-30T01:47:43;9.68;;;5.53;;
35150;SDS011;55720;51.972;4.624;2023-08-30T01:50:10;7.10;;;4.90;;
35150;SDS011;55720;51.972;4.624;2023-08-30T01:52:36;10.32;;;4.70;;
35150;SDS011;55720;51.972;4.624;2023-08-30T01:55:02;8.50;;;4.95;;
35150;SDS011;55720;51.972;4.624;2023-08-30T01:57:28;8.20;;;5.28;;
35150;SDS011;55720;51.972;4.624;2023-08-30T01:59:53;6.95;;;5.18;;
35150;SDS011;55720;51.972;4.624;2023-08-30T02:02:18;6.82;;;5.38;;
35150;SDS011;55720;51.972;4.624;2023-08-30T02:04:43;6.60;;;4.87;;
35150;SDS011;55720;51.972;4.624;2023-08-30T02:07:16;7.13;;;5.38;;
35150;SDS011;55720;51.972;4.624;2023-08-30T02:09:47;4.72;;;4.28;;
35150;SDS011;55720;51.972;4.624;2023-08-30T02:12:14;5.22;;;4.65;;
35150;SDS011;55720;51.972;4.624;2023-08-30T02:14:41;6.22;;;4.70;;
35150;SDS011;55720;51.972;4.624;2023-08-30T02:17:09;5.20;;;4.68;;
35150;SDS011;55720;51.972;4.624;2023-08-30T02:19:35;7.65;;;4.47;;
35150;SDS011;55720;51.972;4.624;2023-08-30T02:22:00;6.20;;;4.78;;
35150;SDS011;55720;51.972;4.624;2023-08-30T02:24:25;6.90;;;5.30;;
35150;SDS011;55720;51.972;4.624;2023-08-30T02:26:50;10.90;;;5.73;;
35150;SDS011;55720;51.972;4.624;2023-08-30T02:29:16;7.30;;;5.70;;
35150;SDS011;55720;51.972;4.624;2023-08-30T02:31:41;7.53;;;5.13;;
35150;SDS011;55720;51.972;4.624;2023-08-30T02:34:06;10.52;;;6.15;;
35150;SDS011;55720;51.972;4.624;2023-08-30T02:36:31;9.13;;;6.03;;
35150;SDS011;55720;51.972;4.624;2023-08-30T02:38:56;9.07;;;5.40;;
35150;SDS011;55720;51.972;4.624;2023-08-30T02:41:22;11.98;;;6.10;;
35150;SDS011;55720;51.972;4.624;2023-08-30T02:43:47;7.97;;;5.87;;
35150;SDS011;55720;51.972;4.624;2023-08-30T02:46:12;10.40;;;6.10;;
35150;SDS011;55720;51.972;4.624;2023-08-30T02:48:37;10.87;;;6.93;;
35150;SDS011;55720;51.972;4.624;2023-08-30T02:51:02;9.20;;;6.07;;
35150;SDS011;55720;51.972;4.624;2023-08-30T02:53:28;12.90;;;6.23;;
35150;SDS011;55720;51.972;4.624;2023-08-30T02:55:53;10.40;;;6.93;;
35150;SDS011;55720;51.972;4.624;2023-08-30T02:58:20;10.65;;;7.00;;
35150;SDS011;55720;51.972;4.624;2023-08-30T03:00:46;9.68;;;6.93;;
35150;SDS011;55720;51.972;4.624;2023-08-30T03:03:11;7.83;;;6.50;;
35150;SDS011;55720;51.972;4.624;2023-08-30T03:05:37;13.38;;;7.57;;
35150;SDS011;55720;51.972;4.624;2023-08-30T03:08:02;10.57;;;6.88;;
35150;SDS011;55720;51.972;4.624;2023-08-30T03:10:27;8.73;;;6.50;;
35150;SDS011;55720;51.972;4.624;2023-08-30T03:12:53;9.90;;;7.28;;
35150;SDS011;55720;51.972;4.624;2023-08-30T03:15:18;10.37;;;7.03;;
35150;SDS011;55720;51.972;4.624;2023-08-30T03:17:43;12.63;;;7.30;;
35150;SDS011;55720;51.972;4.624;2023-08-30T03:20:08;13.23;;;7.20;;
35150;SDS011;55720;51.972;4.624;2023-08-30T03:22:34;12.60;;;7.40;;
35150;SDS011;55720;51.972;4.624;2023-08-30T03:24:59;13.70;;;7.32;;
35150;SDS011;55720;51.972;4.624;2023-08-30T03:27:27;13.05;;;6.97;;
35150;SDS011;55720;51.972;4.624;2023-08-30T03:29:54;10.80;;;7.33;;
35150;SDS011;55720;51.972;4.624;2023-08-30T03:32:20;9.32;;;7.07;;
35150;SDS011;55720;51.972;4.624;2023-08-30T03:34:45;9.48;;;6.95;;
35150;SDS011;55720;51.972;4.624;2023-08-30T03:37:10;11.75;;;7.50;;
35150;SDS011;55720;51.972;4.624;2023-08-30T03:39:36;11.35;;;7.85;;
35150;SDS011;55720;51.972;4.624;2023-08-30T03:42:01;13.93;;;6.90;;
35150;SDS011;55720;51.972;4.624;2023-08-30T03:44:26;12.43;;;7.90;;
35150;SDS011;55720;51.972;4.624;2023-08-30T03:46:51;17.38;;;8.25;;
35150;SDS011;55720;51.972;4.624;2023-08-30T03:49:16;11.60;;;7.35;;
35150;SDS011;55720;51.972;4.624;2023-08-30T03:51:42;12.57;;;7.03;;
35150;SDS011;55720;51.972;4.624;2023-08-30T03:54:07;13.38;;;7.82;;
35150;SDS011;55720;51.972;4.624;2023-08-30T03:56:36;13.13;;;8.00;;
35150;SDS011;55720;51.972;4.624;2023-08-30T03:59:01;14.83;;;8.17;;
35150;SDS011;55720;51.972;4.624;2023-08-30T04:01:26;12.75;;;7.93;;
35150;SDS011;55720;51.972;4.624;2023-08-30T04:03:52;13.03;;;8.23;;
35150;SDS011;55720;51.972;4.624;2023-08-30T04:06:17;16.40;;;8.07;;
35150;SDS011;55720;51.972;4.624;2023-08-30T04:08:42;16.10;;;8.88;;
35150;SDS011;55720;51.972;4.624;2023-08-30T04:11:08;13.10;;;8.00;;
35150;SDS011;55720;51.972;4.624;2023-08-30T04:13:33;16.70;;;8.57;;
35150;SDS011;55720;51.972;4.624;2023-08-30T04:16:00;17.15;;;8.48;;
35150;SDS011;55720;51.972;4.624;2023-08-30T04:18:25;12.57;;;8.00;;
35150;SDS011;55720;51.972;4.624;2023-08-30T04:20:50;14.53;;;8.57;;
35150;SDS011;55720;51.972;4.624;2023-08-30T04:23:15;12.93;;;8.53;;
35150;SDS011;55720;51.972;4.624;2023-08-30T04:25:41;15.30;;;8.18;;
35150;SDS011;55720;51.972;4.624;2023-08-30T04:28:07;13.85;;;8.77;;
35150;SDS011;55720;51.972;4.624;2023-08-30T04:30:32;15.45;;;9.07;;
35150;SDS011;55720;51.972;4.624;2023-08-30T04:32:58;13.85;;;8.88;;
35150;SDS011;55720;51.972;4.624;2023-08-30T04:35:24;14.82;;;9.52;;
35150;SDS011;55720;51.972;4.624;2023-08-30T04:37:49;12.33;;;8.60;;
35150;SDS011;55720;51.972;4.624;2023-08-30T04:40:14;13.88;;;8.18;;
35150;SDS011;55720;51.972;4.624;2023-08-30T04:42:39;14.75;;;8.65;;
35150;SDS011;55720;51.972;4.624;2023-08-30T04:45:05;14.00;;;8.65;;
35150;SDS011;55720;51.972;4.624;2023-08-30T04:47:31;13.05;;;8.48;;
35150;SDS011;55720;51.972;4.624;2023-08-30T04:49:56;13.80;;;9.13;;
35150;SDS011;55720;51.972;4.624;2023-08-30T04:52:22;16.15;;;8.82;;
35150;SDS011;55720;51.972;4.624;2023-08-30T04:54:47;14.80;;;8.97;;
35150;SDS011;55720;51.972;4.624;2023-08-30T04:57:14;13.20;;;9.05;;
35150;SDS011;55720;51.972;4.624;2023-08-30T04:59:41;16.08;;;9.35;;
35150;SDS011;55720;51.972;4.624;2023-08-30T05:02:06;15.95;;;9.65;;
35150;SDS011;55720;51.972;4.624;2023-08-30T05:04:31;16.90;;;9.15;;
35150;SDS011;55720;51.972;4.624;2023-08-30T05:06:56;18.10;;;9.95;;
35150;SDS011;55720;51.972;4.624;2023-08-30T05:09:22;13.93;;;9.60;;
35150;SDS011;55720;51.972;4.624;2023-08-30T05:11:49;14.63;;;9.70;;
35150;SDS011;55720;51.972;4.624;2023-08-30T05:14:15;16.40;;;9.27;;
35150;SDS011;55720;51.972;4.624;2023-08-30T05:16:40;15.17;;;8.90;;
35150;SDS011;55720;51.972;4.624;2023-08-30T05:19:05;19.70;;;10.63;;
35150;SDS011;55720;51.972;4.624;2023-08-30T05:21:30;18.80;;;10.20;;
35150;SDS011;55720;51.972;4.624;2023-08-30T05:23:55;18.70;;;10.40;;
35150;SDS011;55720;51.972;4.624;2023-08-30T05:26:21;16.67;;;10.93;;
35150;SDS011;55720;51.972;4.624;2023-08-30T05:28:46;21.73;;;10.77;;
35150;SDS011;55720;51.972;4.624;2023-08-30T05:31:11;19.47;;;10.30;;
35150;SDS011;55720;51.972;4.624;2023-08-30T05:33:36;18.73;;;11.33;;
35150;SDS011;55720;51.972;4.624;2023-08-30T05:36:01;22.40;;;11.60;;
35150;SDS011;55720;51.972;4.624;2023-08-30T05:38:27;21.05;;;11.77;;
35150;SDS011;55720;51.972;4.624;2023-08-30T05:40:52;24.52;;;11.77;;
35150;SDS011;55720;51.972;4.624;2023-08-30T05:43:18;24.73;;;12.63;;
35150;SDS011;55720;51.972;4.624;2023-08-30T05:45:43;23.20;;;11.63;;
35150;SDS011;55720;51.972;4.624;2023-08-30T05:48:08;25.17;;;12.50;;
35150;SDS011;55720;51.972;4.624;2023-08-30T05:50:33;23.73;;;12.93;;
35150;SDS011;55720;51.972;4.624;2023-08-30T05:52:59;22.93;;;12.30;;
35150;SDS011;55720;51.972;4.624;2023-08-30T05:55:24;22.30;;;12.07;;
35150;SDS011;55720;51.972;4.624;2023-08-30T05:57:49;24.38;;;12.20;;
35150;SDS011;55720;51.972;4.624;2023-08-30T06:00:14;28.33;;;12.55;;
35150;SDS011;55720;51.972;4.624;2023-08-30T06:02:40;22.80;;;11.80;;
35150;SDS011;55720;51.972;4.624;2023-08-30T06:05:05;24.73;;;12.45;;
35150;SDS011;55720;51.972;4.624;2023-08-30T06:07:31;23.30;;;12.65;;
35150;SDS011;55720;51.972;4.624;2023-08-30T06:09:56;21.63;;;12.80;;
35150;SDS011;55720;51.972;4.624;2023-08-30T06:12:21;25.10;;;12.65;;
35150;SDS011;55720;51.972;4.624;2023-08-30T06:14:47;22.48;;;12.60;;
35150;SDS011;55720;51.972;4.624;2023-08-30T06:17:17;20.70;;;11.07;;
35150;SDS011;55720;51.972;4.624;2023-08-30T06:19:42;22.42;;;12.40;;
35150;SDS011;55720;51.972;4.624;2023-08-30T06:22:07;22.33;;;12.20;;
35150;SDS011;55720;51.972;4.624;2023-08-30T06:24:32;21.52;;;12.32;;
35150;SDS011;55720;51.972;4.624;2023-08-30T06:26:57;24.30;;;12.90;;
35150;SDS011;55720;51.972;4.624;2023-08-30T06:29:24;23.80;;;11.93;;
35150;SDS011;55720;51.972;4.624;2023-08-30T06:31:50;21.70;;;12.23;;
35150;SDS011;55720;51.972;4.624;2023-08-30T06:34:15;24.23;;;12.93;;
35150;SDS011;55720;51.972;4.624;2023-08-30T06:36:40;24.27;;;12.90;;
35150;SDS011;55720;51.972;4.624;2023-08-30T06:39:05;22.97;;;13.20;;
35150;SDS011;55720;51.972;4.624;2023-08-30T06:41:30;25.25;;;13.65;;
35150;SDS011;55720;51.972;4.624;2023-08-30T06:43:56;28.02;;;13.80;;
35150;SDS011;55720;51.972;4.624;2023-08-30T06:46:22;27.60;;;13.68;;
35150;SDS011;55720;51.972;4.624;2023-08-30T06:48:47;30.77;;;15.13;;
35150;SDS011;55720;51.972;4.624;2023-08-30T06:51:12;27.38;;;15.27;;
35150;SDS011;55720;51.972;4.624;2023-08-30T06:53:38;27.60;;;14.60;;
35150;SDS011;55720;51.972;4.624;2023-08-30T06:56:03;25.07;;;15.20;;
35150;SDS011;55720;51.972;4.624;2023-08-30T06:58:29;30.80;;;14.80;;
35150;SDS011;55720;51.972;4.624;2023-08-30T07:00:56;22.13;;;13.48;;
35150;SDS011;55720;51.972;4.624;2023-08-30T07:03:21;24.20;;;14.05;;
35150;SDS011;55720;51.972;4.624;2023-08-30T07:05:47;24.17;;;14.07;;
35150;SDS011;55720;51.972;4.624;2023-08-30T07:08:13;27.10;;;14.73;;
35150;SDS011;55720;51.972;4.624;2023-08-30T07:10:39;21.02;;;13.02;;
35150;SDS011;55720;51.972;4.624;2023-08-30T07:13:04;21.67;;;12.20;;
35150;SDS011;55720;51.972;4.624;2023-08-30T07:15:35;23.20;;;13.65;;
35150;SDS011;55720;51.972;4.624;2023-08-30T07:18:00;21.53;;;11.97;;
35150;SDS011;55720;51.972;4.624;2023-08-30T07:20:25;19.60;;;12.33;;
35150;SDS011;55720;51.972;4.624;2023-08-30T07:22:50;18.53;;;12.00;;
35150;SDS011;55720;51.972;4.624;2023-08-30T07:25:16;20.77;;;11.43;;
35150;SDS011;55720;51.972;4.624;2023-08-30T07:27:41;18.25;;;10.82;;
35150;SDS011;55720;51.972;4.624;2023-08-30T07:30:06;23.38;;;9.90;;
35150;SDS011;55720;51.972;4.624;2023-08-30T07:32:32;17.05;;;10.00;;
35150;SDS011;55720;51.972;4.624;2023-08-30T07:34:57;16.67;;;9.00;;
35150;SDS011;55720;51.972;4.624;2023-08-30T07:37:22;14.05;;;8.60;;
35150;SDS011;55720;51.972;4.624;2023-08-30T07:39:48;17.00;;;7.80;;
35150;SDS011;55720;51.972;4.624;2023-08-30T07:42:13;11.63;;;8.03;;
35150;SDS011;55720;51.972;4.624;2023-08-30T07:44:39;11.45;;;7.30;;
35150;SDS011;55720;51.972;4.624;2023-08-30T07:47:05;10.82;;;6.70;;
35150;SDS011;55720;51.972;4.624;2023-08-30T07:49:30;14.60;;;7.43;;
35150;SDS011;55720;51.972;4.624;2023-08-30T07:51:55;9.40;;;6.60;;
35150;SDS011;55720;51.972;4.624;2023-08-30T07:54:20;8.13;;;7.23;;
35150;SDS011;55720;51.972;4.624;2023-08-30T07:56:45;10.07;;;7.07;;
35150;SDS011;55720;51.972;4.624;2023-08-30T07:59:11;8.80;;;7.22;;
35150;SDS011;55720;51.972;4.624;2023-08-30T08:01:36;9.63;;;7.83;;
35150;SDS011;55720;51.972;4.624;2023-08-30T08:04:01;10.47;;;8.73;;
35150;SDS011;55720;51.972;4.624;2023-08-30T08:06:26;11.55;;;8.63;;
35150;SDS011;55720;51.972;4.624;2023-08-30T08:08:51;9.57;;;8.07;;
35150;SDS011;55720;51.972;4.624;2023-08-30T08:11:17;9.85;;;8.10;;
35150;SDS011;55720;51.972;4.624;2023-08-30T08:13:43;11.02;;;8.75;;
35150;SDS011;55720;51.972;4.624;2023-08-30T08:16:08;12.95;;;9.95;;
35150;SDS011;55720;51.972;4.624;2023-08-30T08:18:33;12.32;;;9.80;;
35150;SDS011;55720;51.972;4.624;2023-08-30T08:20:58;9.70;;;8.67;;
35150;SDS011;55720;51.972;4.624;2023-08-30T08:23:24;11.57;;;8.53;;
35150;SDS011;55720;51.972;4.624;2023-08-30T08:25:49;12.20;;;8.93;;
35150;SDS011;55720;51.972;4.624;2023-08-30T08:28:14;10.17;;;8.47;;
35150;SDS011;55720;51.972;4.624;2023-08-30T08:30:40;11.35;;;8.68;;
35150;SDS011;55720;51.972;4.624;2023-08-30T08:33:07;13.52;;;9.23;;
35150;SDS011;55720;51.972;4.624;2023-08-30T08:35:32;10.27;;;8.70;;
35150;SDS011;55720;51.972;4.624;2023-08-30T08:37:57;12.57;;;8.73;;
35150;SDS011;55720;51.972;4.624;2023-08-30T08:40:23;12.90;;;8.63;;
35150;SDS011;55720;51.972;4.624;2023-08-30T08:42:48;9.88;;;8.35;;
35150;SDS011;55720;51.972;4.624;2023-08-30T08:45:15;9.38;;;8.38;;
35150;SDS011;55720;51.972;4.624;2023-08-30T08:47:41;8.98;;;7.95;;
35150;SDS011;55720;51.972;4.624;2023-08-30T08:50:08;7.35;;;6.65;;
35150;SDS011;55720;51.972;4.624;2023-08-30T08:52:34;6.70;;;5.45;;
35150;SDS011;55720;51.972;4.624;2023-08-30T08:54:59;5.45;;;4.80;;
35150;SDS011;55720;51.972;4.624;2023-08-30T08:57:24;5.63;;;4.80;;
35150;SDS011;55720;51.972;4.624;2023-08-30T08:59:51;4.28;;;3.97;;
35150;SDS011;55720;51.972;4.624;2023-08-30T09:02:16;6.70;;;4.40;;
35150;SDS011;55720;51.972;4.624;2023-08-30T09:04:42;4.15;;;3.70;;
35150;SDS011;55720;51.972;4.624;2023-08-30T09:07:07;3.73;;;3.10;;
35150;SDS011;55720;51.972;4.624;2023-08-30T09:09:35;2.85;;;2.65;;
35150;SDS011;55720;51.972;4.624;2023-08-30T09:12:01;2.00;;;1.90;;
35150;SDS011;55720;51.972;4.624;2023-08-30T09:14:26;5.93;;;1.77;;
35150;SDS011;55720;51.972;4.624;2023-08-30T09:16:55;1.90;;;1.70;;
35150;SDS011;55720;51.972;4.624;2023-08-30T09:19:21;2.30;;;1.58;;
35150;SDS011;55720;51.972;4.624;2023-08-30T09:21:50;5.72;;;3.45;;
35150;SDS011;55720;51.972;4.624;2023-08-30T09:24:15;4.03;;;1.90;;
35150;SDS011;55720;51.972;4.624;2023-08-30T09:26:46;4.60;;;1.80;;
35150;SDS011;55720;51.972;4.624;2023-08-30T09:29:11;5.75;;;1.83;;
35150;SDS011;55720;51.972;4.624;2023-08-30T09:31:37;4.70;;;2.03;;
35150;SDS011;55720;51.972;4.624;2023-08-30T09:34:03;3.95;;;2.10;;
35150;SDS011;55720;51.972;4.624;2023-08-30T09:36:38;3.50;;;1.60;;
35150;SDS011;55720;51.972;4.624;2023-08-30T09:39:05;5.40;;;1.80;;
35150;SDS011;55720;51.972;4.624;2023-08-30T09:41:30;5.95;;;1.55;;
35150;SDS011;55720;51.972;4.624;2023-08-30T09:43:57;3.72;;;1.58;;
35150;SDS011;55720;51.972;4.624;2023-08-30T09:46:23;3.67;;;1.67;;
35150;SDS011;55720;51.972;4.624;2023-08-30T09:48:48;6.07;;;1.48;;
35150;SDS011;55720;51.972;4.624;2023-08-30T09:51:14;5.35;;;1.95;;
35150;SDS011;55720;51.972;4.624;2023-08-30T09:53:41;6.55;;;1.80;;
35150;SDS011;55720;51.972;4.624;2023-08-30T09:56:09;5.63;;;1.42;;
35150;SDS011;55720;51.972;4.624;2023-08-30T09:58:35;9.50;;;1.80;;
35150;SDS011;55720;51.972;4.624;2023-08-30T10:01:00;8.30;;;1.50;;
35150;SDS011;55720;51.972;4.624;2023-08-30T10:03:28;5.60;;;1.80;;
35150;SDS011;55720;51.972;4.624;2023-08-30T10:05:53;4.38;;;1.60;;
35150;SDS011;55720;51.972;4.624;2023-08-30T10:08:19;4.57;;;1.48;;
35150;SDS011;55720;51.972;4.624;2023-08-30T10:10:45;2.75;;;1.80;;
35150;SDS011;55720;51.972;4.624;2023-08-30T10:13:10;5.22;;;1.88;;
35150;SDS011;55720;51.972;4.624;2023-08-30T10:15:36;2.00;;;1.25;;
35150;SDS011;55720;51.972;4.624;2023-08-30T10:18:05;5.60;;;1.70;;
35150;SDS011;55720;51.972;4.624;2023-08-30T10:20:31;5.10;;;1.38;;
35150;SDS011;55720;51.972;4.624;2023-08-30T10:22:57;4.72;;;1.70;;
35150;SDS011;55720;51.972;4.624;2023-08-30T10:25:24;5.55;;;1.50;;
35150;SDS011;55720;51.972;4.624;2023-08-30T10:27:50;5.18;;;1.48;;
35150;SDS011;55720;51.972;4.624;2023-08-30T10:30:15;6.40;;;1.60;;
35150;SDS011;55720;51.972;4.624;2023-08-30T10:32:42;6.05;;;2.00;;
35150;SDS011;55720;51.972;4.624;2023-08-30T10:35:10;9.23;;;2.35;;
35150;SDS011;55720;51.972;4.624;2023-08-30T10:37:35;4.43;;;2.05;;
35150;SDS011;55720;51.972;4.624;2023-08-30T10:40:01;7.20;;;2.33;;
35150;SDS011;55720;51.972;4.624;2023-08-30T10:42:29;8.30;;;2.20;;
35150;SDS011;55720;51.972;4.624;2023-08-30T10:45:07;7.28;;;2.83;;
35150;SDS011;55720;51.972;4.624;2023-08-30T10:47:33;8.65;;;2.35;;
35150;SDS011;55720;51.972;4.624;2023-08-30T10:50:05;8.80;;;2.00;;
35150;SDS011;55720;51.972;4.624;2023-08-30T10:52:31;8.07;;;1.98;;
35150;SDS011;55720;51.972;4.624;2023-08-30T10:55:13;7.95;;;2.00;;
35150;SDS011;55720;51.972;4.624;2023-08-30T10:57:42;5.60;;;1.65;;
35150;SDS011;55720;51.972;4.624;2023-08-30T11:05:06;5.20;;;1.20;;
35150;SDS011;55720;51.972;4.624;2023-08-30T11:07:32;3.83;;;1.17;;
35150;SDS011;55720;51.972;4.624;2023-08-30T11:09:57;10.30;;;1.42;;
35150;SDS011;55720;51.972;4.624;2023-08-30T11:12:23;7.05;;;1.20;;
35150;SDS011;55720;51.972;4.624;2023-08-30T11:14:49;6.28;;;1.15;;
35150;SDS011;55720;51.972;4.624;2023-08-30T11:17:17;6.30;;;1.10;;
35150;SDS011;55720;51.972;4.624;2023-08-30T11:19:42;5.45;;;1.17;;
35150;SDS011;55720;51.972;4.624;2023-08-30T11:22:07;6.68;;;1.50;;
35150;SDS011;55720;51.972;4.624;2023-08-30T11:24:33;5.95;;;1.38;;
35150;SDS011;55720;51.972;4.624;2023-08-30T11:26:59;4.95;;;1.10;;
35150;SDS011;55720;51.972;4.624;2023-08-30T11:29:24;6.00;;;1.15;;
35150;SDS011;55720;51.972;4.624;2023-08-30T11:31:51;6.30;;;1.50;;
35150;SDS011;55720;51.972;4.624;2023-08-30T11:34:19;8.20;;;1.30;;
35150;SDS011;55720;51.972;4.624;2023-08-30T11:36:44;4.80;;;1.25;;
35150;SDS011;55720;51.972;4.624;2023-08-30T11:39:12;4.35;;;1.70;;
35150;SDS011;55720;51.972;4.624;2023-08-30T11:41:38;6.13;;;1.10;;
35150;SDS011;55720;51.972;4.624;2023-08-30T11:44:04;6.53;;;1.55;;
35150;SDS011;55720;51.972;4.624;2023-08-30T11:46:29;6.32;;;1.50;;
35150;SDS011;55720;51.972;4.624;2023-08-30T11:48:55;4.70;;;1.50;;
35150;SDS011;55720;51.972;4.624;2023-08-30T11:51:20;5.13;;;1.02;;
35150;SDS011;55720;51.972;4.624;2023-08-30T11:53:46;7.88;;;1.10;;
35150;SDS011;55720;51.972;4.624;2023-08-30T11:56:11;8.23;;;1.58;;
35150;SDS011;55720;51.972;4.624;2023-08-30T11:58:37;8.18;;;1.20;;
35150;SDS011;55720;51.972;4.624;2023-08-30T12:01:02;6.28;;;1.23;;
35150;SDS011;55720;51.972;4.624;2023-08-30T12:03:29;6.70;;;1.40;;
35150;SDS011;55720;51.972;4.624;2023-08-30T12:05:54;6.68;;;1.17;;
35150;SDS011;55720;51.972;4.624;2023-08-30T12:08:20;7.15;;;1.30;;
35150;SDS011;55720;51.972;4.624;2023-08-30T12:10:46;7.30;;;1.00;;
35150;SDS011;55720;51.972;4.624;2023-08-30T12:13:31;8.57;;;2.10;;
35150;SDS011;55720;51.972;4.624;2023-08-30T12:15:57;4.03;;;1.08;;
35150;SDS011;55720;51.972;4.624;2023-08-30T12:18:23;3.28;;;1.33;;
35150;SDS011;55720;51.972;4.624;2023-08-30T12:21:01;3.60;;;0.85;;
35150;SDS011;55720;51.972;4.624;2023-08-30T12:23:28;3.03;;;1.58;;
35150;SDS011;55720;51.972;4.624;2023-08-30T12:26:00;4.40;;;1.15;;
35150;SDS011;55720;51.972;4.624;2023-08-30T12:28:26;3.38;;;0.82;;
35150;SDS011;55720;51.972;4.624;2023-08-30T12:30:51;5.95;;;1.60;;
35150;SDS011;55720;51.972;4.624;2023-08-30T12:33:16;6.05;;;1.20;;
35150;SDS011;55720;51.972;4.624;2023-08-30T12:35:42;6.20;;;1.67;;
35150;SDS011;55720;51.972;4.624;2023-08-30T12:38:08;7.77;;;1.63;;
35150;SDS011;55720;51.972;4.624;2023-08-30T12:40:34;6.90;;;1.33;;
35150;SDS011;55720;51.972;4.624;2023-08-30T12:43:00;10.30;;;1.67;;
35150;SDS011;55720;51.972;4.624;2023-08-30T12:45:25;7.20;;;1.60;;
35150;SDS011;55720;51.972;4.624;2023-08-30T12:47:50;7.57;;;1.60;;
35150;SDS011;55720;51.972;4.624;2023-08-30T12:50:15;4.83;;;1.30;;
35150;SDS011;55720;51.972;4.624;2023-08-30T12:52:40;3.13;;;1.40;;
35150;SDS011;55720;51.972;4.624;2023-08-30T12:55:06;5.23;;;1.87;;
35150;SDS011;55720;51.972;4.624;2023-08-30T12:57:31;6.38;;;1.30;;
35150;SDS011;55720;51.972;4.624;2023-08-30T12:59:56;7.00;;;1.67;;
35150;SDS011;55720;51.972;4.624;2023-08-30T13:02:21;3.47;;;1.23;;
35150;SDS011;55720;51.972;4.624;2023-08-30T13:04:47;7.18;;;1.38;;
35150;SDS011;55720;51.972;4.624;2023-08-30T13:07:12;5.63;;;1.37;;
35150;SDS011;55720;51.972;4.624;2023-08-30T13:09:37;2.97;;;1.00;;
35150;SDS011;55720;51.972;4.624;2023-08-30T13:12:02;1.47;;;0.83;;
35150;SDS011;55720;51.972;4.624;2023-08-30T13:14:28;4.70;;;0.95;;
35150;SDS011;55720;51.972;4.624;2023-08-30T13:16:53;3.90;;;1.07;;
35150;SDS011;55720;51.972;4.624;2023-08-30T13:19:21;3.53;;;0.88;;
35150;SDS011;55720;51.972;4.624;2023-08-30T13:21:46;2.47;;;0.80;;
35150;SDS011;55720;51.972;4.624;2023-08-30T13:24:12;5.77;;;0.80;;
35150;SDS011;55720;51.972;4.624;2023-08-30T13:26:37;3.53;;;0.73;;
35150;SDS011;55720;51.972;4.624;2023-08-30T13:29:02;3.20;;;0.80;;
35150;SDS011;55720;51.972;4.624;2023-08-30T13:31:27;3.40;;;0.73;;
35150;SDS011;55720;51.972;4.624;2023-08-30T13:33:52;4.53;;;0.77;;
35150;SDS011;55720;51.972;4.624;2023-08-30T13:36:18;3.47;;;0.67;;
35150;SDS011;55720;51.972;4.624;2023-08-30T13:38:43;4.53;;;0.97;;
35150;SDS011;55720;51.972;4.624;2023-08-30T13:41:08;7.43;;;0.90;;
35150;SDS011;55720;51.972;4.624;2023-08-30T13:43:33;4.55;;;0.90;;
35150;SDS011;55720;51.972;4.624;2023-08-30T13:45:59;3.20;;;0.90;;
35150;SDS011;55720;51.972;4.624;2023-08-30T13:48:24;2.15;;;0.85;;
35150;SDS011;55720;51.972;4.624;2023-08-30T13:50:50;3.47;;;1.13;;
35150;SDS011;55720;51.972;4.624;2023-08-30T13:53:15;4.15;;;0.90;;
35150;SDS011;55720;51.972;4.624;2023-08-30T13:55:44;2.97;;;1.00;;
35150;SDS011;55720;51.972;4.624;2023-08-30T13:58:09;1.50;;;0.75;;
35150;SDS011;55720;51.972;4.624;2023-08-30T14:00:34;7.23;;;1.20;;
35150;SDS011;55720;51.972;4.624;2023-08-30T14:02:59;2.80;;;0.83;;
35150;SDS011;55720;51.972;4.624;2023-08-30T14:05:24;7.88;;;1.00;;
35150;SDS011;55720;51.972;4.624;2023-08-30T14:07:50;2.70;;;1.00;;
35150;SDS011;55720;51.972;4.624;2023-08-30T14:10:16;2.67;;;0.75;;
35150;SDS011;55720;51.972;4.624;2023-08-30T14:12:43;2.65;;;0.70;;
35150;SDS011;55720;51.972;4.624;2023-08-30T14:15:08;2.53;;;0.55;;
35150;SDS011;55720;51.972;4.624;2023-08-30T14:17:33;4.10;;;0.60;;
35150;SDS011;55720;51.972;4.624;2023-08-30T14:19:59;2.63;;;0.80;;
35150;SDS011;55720;51.972;4.624;2023-08-30T14:22:24;3.67;;;0.90;;
35150;SDS011;55720;51.972;4.624;2023-08-30T14:24:49;4.47;;;0.97;;
35150;SDS011;55720;51.972;4.624;2023-08-30T14:27:14;3.95;;;1.00;;
35150;SDS011;55720;51.972;4.624;2023-08-30T14:29:40;4.23;;;1.53;;
35150;SDS011;55720;51.972;4.624;2023-08-30T14:32:05;4.90;;;0.80;;
35150;SDS011;55720;51.972;4.624;2023-08-30T14:34:30;4.97;;;1.10;;
35150;SDS011;55720;51.972;4.624;2023-08-30T14:36:55;4.87;;;1.00;;
35150;SDS011;55720;51.972;4.624;2023-08-30T14:39:21;4.20;;;1.10;;